sensor_id;sensor_type;location;lat;lon;timestamp;temperature;humidity
15698;DHT22;7949;48.726;9.102;2022-10-28T00:00:45;17.20;99.90
15698;DHT22;7949;48.726;9.102;2022-10-28T00:03:12;17.10;99.90
15698;DHT22;7949;48.726;9.102;2022-10-28T00:05:40;17.10;99.90
15698;DHT22;7949;48.726;9.102;2022-10-28T00:08:08;17.10;99.90
15698;DHT22;7949;48.726;9.102;2022-10-28T00:10:35;17.10;99.90
15698;DHT22;7949;48.726;9.102;2022-10-28T00:13:02;17.10;99.90
15698;DHT22;7949;48.726;9.102;2022-10-28T00:15:29;17.20;99.90
15698;DHT22;7949;48.726;9.102;2022-10-28T00:17:56;17.10;99.90
15698;DHT22;7949;48.726;9.102;2022-10-28T00:20:23;17.10;99.90
15698;DHT22;7949;48.726;9.102;2022-10-28T00:22:50;17.10;99.90
15698;DHT22;7949;48.726;9.102;2022-10-28T00:25:18;17.10;99.90
15698;DHT22;7949;48.726;9.102;2022-10-28T00:27:49;17.10;99.90
15698;DHT22;7949;48.726;9.102;2022-10-28T00:30:16;17.30;99.90
15698;DHT22;7949;48.726;9.102;2022-10-28T00:32:43;17.40;99.90
15698;DHT22;7949;48.726;9.102;2022-10-28T00:35:10;17.30;99.90
15698;DHT22;7949;48.726;9.102;2022-10-28T00:37:37;17.90;99.90
15698;DHT22;7949;48.726;9.102;2022-10-28T00:40:05;17.40;99.90
15698;DHT22;7949;48.726;9.102;2022-10-28T00:42:33;17.40;99.90
15698;DHT22;7949;48.726;9.102;2022-10-28T00:45:00;17.40;99.90
15698;DHT22;7949;48.726;9.102;2022-10-28T00:47:46;17.30;99.90
15698;DHT22;7949;48.726;9.102;2022-10-28T00:50:32;17.20;99.90
15698;DHT22;7949;48.726;9.102;2022-10-28T00:53:05;17.30;99.90
15698;DHT22;7949;48.726;9.102;2022-10-28T00:55:33;17.20;99.90
15698;DHT22;7949;48.726;9.102;2022-10-28T00:58:04;17.20;99.90
15698;DHT22;7949;48.726;9.102;2022-10-28T01:00:31;17.20;99.90
15698;DHT22;7949;48.726;9.102;2022-10-28T01:02:58;17.30;99.90
15698;DHT22;7949;48.726;9.102;2022-10-28T01:05:27;18.00;99.90
15698;DHT22;7949;48.726;9.102;2022-10-28T01:07:57;17.40;99.90
15698;DHT22;7949;48.726;9.102;2022-10-28T01:10:39;17.40;99.90
15698;DHT22;7949;48.726;9.102;2022-10-28T01:13:17;17.50;99.90
15698;DHT22;7949;48.726;9.102;2022-10-28T01:15:50;17.50;99.90
15698;DHT22;7949;48.726;9.102;2022-10-28T01:18:25;17.60;99.90
15698;DHT22;7949;48.726;9.102;2022-10-28T01:24:04;17.60;99.90
15698;DHT22;7949;48.726;9.102;2022-10-28T01:29:55;17.60;99.90
15698;DHT22;7949;48.726;9.102;2022-10-28T01:32:30;17.70;99.90
15698;DHT22;7949;48.726;9.102;2022-10-28T01:35:07;17.80;99.90
15698;DHT22;7949;48.726;9.102;2022-10-28T01:37:39;17.90;99.90
15698;DHT22;7949;48.726;9.102;2022-10-28T01:40:12;17.90;99.90
15698;DHT22;7949;48.726;9.102;2022-10-28T01:42:43;17.80;99.90
15698;DHT22;7949;48.726;9.102;2022-10-28T01:45:15;17.90;99.90
15698;DHT22;7949;48.726;9.102;2022-10-28T01:47:48;17.80;99.90
15698;DHT22;7949;48.726;9.102;2022-10-28T01:50:20;17.80;99.90
15698;DHT22;7949;48.726;9.102;2022-10-28T01:52:51;17.70;99.90
15698;DHT22;7949;48.726;9.102;2022-10-28T01:55:22;17.60;99.90
15698;DHT22;7949;48.726;9.102;2022-10-28T01:57:53;17.50;99.90
15698;DHT22;7949;48.726;9.102;2022-10-28T02:00:20;17.40;99.90
15698;DHT22;7949;48.726;9.102;2022-10-28T02:02:49;17.30;99.90
15698;DHT22;7949;48.726;9.102;2022-10-28T02:05:36;17.20;99.90
15698;DHT22;7949;48.726;9.102;2022-10-28T02:08:11;17.30;99.90
15698;DHT22;7949;48.726;9.102;2022-10-28T02:10:49;17.20;99.90
15698;DHT22;7949;48.726;9.102;2022-10-28T02:13:21;17.10;99.90
15698;DHT22;7949;48.726;9.102;2022-10-28T02:15:58;17.10;99.90
15698;DHT22;7949;48.726;9.102;2022-10-28T02:18:34;17.50;99.90
15698;DHT22;7949;48.726;9.102;2022-10-28T02:21:07;17.10;99.90
15698;DHT22;7949;48.726;9.102;2022-10-28T02:23:43;17.00;99.90
15698;DHT22;7949;48.726;9.102;2022-10-28T02:26:15;17.00;99.90
15698;DHT22;7949;48.726;9.102;2022-10-28T02:28:54;16.80;99.90
15698;DHT22;7949;48.726;9.102;2022-10-28T02:31:28;16.80;99.90
15698;DHT22;7949;48.726;9.102;2022-10-28T02:34:00;16.70;99.90
15698;DHT22;7949;48.726;9.102;2022-10-28T02:36:33;16.80;99.90
15698;DHT22;7949;48.726;9.102;2022-10-28T02:39:01;16.80;99.90
15698;DHT22;7949;48.726;9.102;2022-10-28T02:41:34;16.90;99.90
15698;DHT22;7949;48.726;9.102;2022-10-28T02:44:06;16.80;99.90
15698;DHT22;7949;48.726;9.102;2022-10-28T02:46:34;16.80;99.90
15698;DHT22;7949;48.726;9.102;2022-10-28T02:49:07;16.80;99.90
15698;DHT22;7949;48.726;9.102;2022-10-28T02:51:36;16.70;99.90
15698;DHT22;7949;48.726;9.102;2022-10-28T02:54:08;16.60;99.90
15698;DHT22;7949;48.726;9.102;2022-10-28T02:56:39;16.50;99.90
15698;DHT22;7949;48.726;9.102;2022-10-28T02:59:09;16.40;99.90
15698;DHT22;7949;48.726;9.102;2022-10-28T03:01:36;16.40;99.90
15698;DHT22;7949;48.726;9.102;2022-10-28T03:04:05;16.40;99.90
15698;DHT22;7949;48.726;9.102;2022-10-28T03:06:32;16.40;99.90
15698;DHT22;7949;48.726;9.102;2022-10-28T03:08:59;16.50;99.90
15698;DHT22;7949;48.726;9.102;2022-10-28T03:11:26;16.60;99.90
15698;DHT22;7949;48.726;9.102;2022-10-28T03:13:53;16.60;99.90
15698;DHT22;7949;48.726;9.102;2022-10-28T03:16:20;16.70;99.90
15698;DHT22;7949;48.726;9.102;2022-10-28T03:18:46;16.70;99.90
15698;DHT22;7949;48.726;9.102;2022-10-28T03:21:15;16.80;99.90
15698;DHT22;7949;48.726;9.102;2022-10-28T03:23:42;16.80;99.90
15698;DHT22;7949;48.726;9.102;2022-10-28T03:26:08;16.90;99.90
15698;DHT22;7949;48.726;9.102;2022-10-28T03:28:35;17.00;99.90
15698;DHT22;7949;48.726;9.102;2022-10-28T03:31:02;16.90;99.90
15698;DHT22;7949;48.726;9.102;2022-10-28T03:33:29;17.00;99.90
15698;DHT22;7949;48.726;9.102;2022-10-28T03:35:56;17.10;99.90
15698;DHT22;7949;48.726;9.102;2022-10-28T03:38:24;17.10;99.90
15698;DHT22;7949;48.726;9.102;2022-10-28T03:40:51;17.20;99.90
15698;DHT22;7949;48.726;9.102;2022-10-28T03:43:18;17.20;99.90
15698;DHT22;7949;48.726;9.102;2022-10-28T03:45:46;17.20;99.90
15698;DHT22;7949;48.726;9.102;2022-10-28T03:48:13;17.30;99.90
15698;DHT22;7949;48.726;9.102;2022-10-28T03:50:40;17.30;99.90
15698;DHT22;7949;48.726;9.102;2022-10-28T03:53:07;17.40;99.90
15698;DHT22;7949;48.726;9.102;2022-10-28T03:55:35;17.40;99.90
15698;DHT22;7949;48.726;9.102;2022-10-28T03:58:02;17.60;99.90
15698;DHT22;7949;48.726;9.102;2022-10-28T04:00:29;17.60;99.90
15698;DHT22;7949;48.726;9.102;2022-10-28T04:02:56;17.60;99.90
15698;DHT22;7949;48.726;9.102;2022-10-28T04:05:23;17.60;99.90
15698;DHT22;7949;48.726;9.102;2022-10-28T04:07:50;17.60;99.90
15698;DHT22;7949;48.726;9.102;2022-10-28T04:10:18;17.60;99.90
15698;DHT22;7949;48.726;9.102;2022-10-28T04:12:46;17.50;99.90
15698;DHT22;7949;48.726;9.102;2022-10-28T04:15:13;17.50;99.90
15698;DHT22;7949;48.726;9.102;2022-10-28T04:17:40;17.50;99.90
15698;DHT22;7949;48.726;9.102;2022-10-28T04:20:08;17.90;99.90
15698;DHT22;7949;48.726;9.102;2022-10-28T04:22:35;17.50;99.90
15698;DHT22;7949;48.726;9.102;2022-10-28T04:25:02;17.50;99.90
15698;DHT22;7949;48.726;9.102;2022-10-28T04:27:28;17.50;99.90
15698;DHT22;7949;48.726;9.102;2022-10-28T04:29:57;17.50;99.90
15698;DHT22;7949;48.726;9.102;2022-10-28T04:32:24;17.50;99.90
15698;DHT22;7949;48.726;9.102;2022-10-28T04:34:50;17.50;99.90
15698;DHT22;7949;48.726;9.102;2022-10-28T04:37:17;17.50;99.90
15698;DHT22;7949;48.726;9.102;2022-10-28T04:39:44;17.90;99.90
15698;DHT22;7949;48.726;9.102;2022-10-28T04:42:11;17.70;99.90
15698;DHT22;7949;48.726;9.102;2022-10-28T04:44:38;17.40;99.90
15698;DHT22;7949;48.726;9.102;2022-10-28T04:47:07;17.30;99.90
15698;DHT22;7949;48.726;9.102;2022-10-28T04:49:33;17.30;99.90
15698;DHT22;7949;48.726;9.102;2022-10-28T04:52:00;17.40;99.90
15698;DHT22;7949;48.726;9.102;2022-10-28T04:54:27;17.30;99.90
15698;DHT22;7949;48.726;9.102;2022-10-28T04:56:54;17.30;99.90
15698;DHT22;7949;48.726;9.102;2022-10-28T04:59:21;17.20;99.90
15698;DHT22;7949;48.726;9.102;2022-10-28T05:01:48;17.10;99.90
15698;DHT22;7949;48.726;9.102;2022-10-28T05:04:16;17.00;99.90
15698;DHT22;7949;48.726;9.102;2022-10-28T05:06:43;16.80;99.90
15698;DHT22;7949;48.726;9.102;2022-10-28T05:09:10;16.60;99.90
15698;DHT22;7949;48.726;9.102;2022-10-28T05:11:37;16.40;99.90
15698;DHT22;7949;48.726;9.102;2022-10-28T05:14:04;16.30;99.90
15698;DHT22;7949;48.726;9.102;2022-10-28T05:16:30;16.10;99.90
15698;DHT22;7949;48.726;9.102;2022-10-28T05:18:58;16.00;99.90
15698;DHT22;7949;48.726;9.102;2022-10-28T05:21:26;16.80;99.90
15698;DHT22;7949;48.726;9.102;2022-10-28T05:23:53;16.00;99.90
15698;DHT22;7949;48.726;9.102;2022-10-28T05:26:20;16.20;99.90
15698;DHT22;7949;48.726;9.102;2022-10-28T05:28:48;16.40;99.90
15698;DHT22;7949;48.726;9.102;2022-10-28T05:31:15;16.50;99.90
15698;DHT22;7949;48.726;9.102;2022-10-28T05:33:42;17.00;99.90
15698;DHT22;7949;48.726;9.102;2022-10-28T05:36:09;16.70;99.90
15698;DHT22;7949;48.726;9.102;2022-10-28T05:38:37;17.20;99.90
15698;DHT22;7949;48.726;9.102;2022-10-28T05:41:07;16.90;99.90
15698;DHT22;7949;48.726;9.102;2022-10-28T05:43:33;16.90;99.90
15698;DHT22;7949;48.726;9.102;2022-10-28T05:46:00;17.00;99.90
15698;DHT22;7949;48.726;9.102;2022-10-28T05:48:28;17.00;99.90
15698;DHT22;7949;48.726;9.102;2022-10-28T05:50:55;17.10;99.90
15698;DHT22;7949;48.726;9.102;2022-10-28T05:53:22;17.10;99.90
15698;DHT22;7949;48.726;9.102;2022-10-28T05:55:50;17.60;99.90
15698;DHT22;7949;48.726;9.102;2022-10-28T05:58:17;17.00;99.90
15698;DHT22;7949;48.726;9.102;2022-10-28T06:00:44;17.10;99.90
15698;DHT22;7949;48.726;9.102;2022-10-28T06:03:11;17.10;99.90
15698;DHT22;7949;48.726;9.102;2022-10-28T06:05:39;17.20;99.90
15698;DHT22;7949;48.726;9.102;2022-10-28T06:08:09;17.20;99.90
15698;DHT22;7949;48.726;9.102;2022-10-28T06:10:36;17.20;99.90
15698;DHT22;7949;48.726;9.102;2022-10-28T06:13:04;17.20;99.90
15698;DHT22;7949;48.726;9.102;2022-10-28T06:15:31;17.10;99.90
15698;DHT22;7949;48.726;9.102;2022-10-28T06:17:58;17.10;99.90
15698;DHT22;7949;48.726;9.102;2022-10-28T06:20:25;17.10;99.90
15698;DHT22;7949;48.726;9.102;2022-10-28T06:22:53;17.10;99.90
15698;DHT22;7949;48.726;9.102;2022-10-28T06:25:23;17.10;99.90
15698;DHT22;7949;48.726;9.102;2022-10-28T06:27:53;17.20;99.90
15698;DHT22;7949;48.726;9.102;2022-10-28T06:30:21;17.10;99.90
15698;DHT22;7949;48.726;9.102;2022-10-28T06:32:48;17.00;99.90
15698;DHT22;7949;48.726;9.102;2022-10-28T06:35:15;17.10;99.90
15698;DHT22;7949;48.726;9.102;2022-10-28T06:37:42;17.10;99.90
15698;DHT22;7949;48.726;9.102;2022-10-28T06:40:09;17.10;99.90
15698;DHT22;7949;48.726;9.102;2022-10-28T06:42:36;17.00;99.90
15698;DHT22;7949;48.726;9.102;2022-10-28T06:45:04;16.90;99.90
15698;DHT22;7949;48.726;9.102;2022-10-28T06:47:32;16.90;99.90
15698;DHT22;7949;48.726;9.102;2022-10-28T06:49:59;16.90;99.90
15698;DHT22;7949;48.726;9.102;2022-10-28T06:52:25;17.00;99.90
15698;DHT22;7949;48.726;9.102;2022-10-28T06:54:52;16.90;99.90
15698;DHT22;7949;48.726;9.102;2022-10-28T06:57:19;16.90;99.90
15698;DHT22;7949;48.726;9.102;2022-10-28T06:59:49;16.90;99.90
15698;DHT22;7949;48.726;9.102;2022-10-28T07:02:16;17.00;99.90
15698;DHT22;7949;48.726;9.102;2022-10-28T07:04:44;17.00;99.90
15698;DHT22;7949;48.726;9.102;2022-10-28T07:07:11;16.90;99.90
15698;DHT22;7949;48.726;9.102;2022-10-28T07:09:38;16.90;99.90
15698;DHT22;7949;48.726;9.102;2022-10-28T07:12:07;16.80;99.90
15698;DHT22;7949;48.726;9.102;2022-10-28T07:14:34;16.80;99.90
15698;DHT22;7949;48.726;9.102;2022-10-28T07:17:01;16.80;99.90
15698;DHT22;7949;48.726;9.102;2022-10-28T07:19:28;16.80;99.90
15698;DHT22;7949;48.726;9.102;2022-10-28T07:21:56;16.90;99.90
15698;DHT22;7949;48.726;9.102;2022-10-28T07:24:23;17.10;99.90
15698;DHT22;7949;48.726;9.102;2022-10-28T07:26:50;17.30;99.90
15698;DHT22;7949;48.726;9.102;2022-10-28T07:29:17;17.30;99.90
15698;DHT22;7949;48.726;9.102;2022-10-28T07:31:44;17.50;99.90
15698;DHT22;7949;48.726;9.102;2022-10-28T07:34:11;17.60;99.90
15698;DHT22;7949;48.726;9.102;2022-10-28T07:36:38;17.70;99.90
15698;DHT22;7949;48.726;9.102;2022-10-28T07:39:06;17.80;99.90
15698;DHT22;7949;48.726;9.102;2022-10-28T07:41:33;17.90;99.90
15698;DHT22;7949;48.726;9.102;2022-10-28T07:44:02;17.90;99.90
15698;DHT22;7949;48.726;9.102;2022-10-28T07:46:31;18.00;99.90
15698;DHT22;7949;48.726;9.102;2022-10-28T07:48:58;18.20;99.90
15698;DHT22;7949;48.726;9.102;2022-10-28T07:51:25;18.20;99.90
15698;DHT22;7949;48.726;9.102;2022-10-28T07:53:53;18.40;99.90
15698;DHT22;7949;48.726;9.102;2022-10-28T07:56:22;18.50;99.90
15698;DHT22;7949;48.726;9.102;2022-10-28T07:58:49;18.60;99.90
15698;DHT22;7949;48.726;9.102;2022-10-28T08:01:18;18.70;99.90
15698;DHT22;7949;48.726;9.102;2022-10-28T08:03:45;18.70;99.90
15698;DHT22;7949;48.726;9.102;2022-10-28T08:06:14;18.70;99.90
15698;DHT22;7949;48.726;9.102;2022-10-28T08:08:42;18.80;99.90
15698;DHT22;7949;48.726;9.102;2022-10-28T08:11:10;18.90;99.90
15698;DHT22;7949;48.726;9.102;2022-10-28T08:13:39;18.90;99.90
15698;DHT22;7949;48.726;9.102;2022-10-28T08:16:07;19.00;99.90
15698;DHT22;7949;48.726;9.102;2022-10-28T08:18:35;19.00;99.90
15698;DHT22;7949;48.726;9.102;2022-10-28T08:21:03;19.00;99.90
15698;DHT22;7949;48.726;9.102;2022-10-28T08:23:32;19.10;99.90
15698;DHT22;7949;48.726;9.102;2022-10-28T08:25:59;19.10;99.90
15698;DHT22;7949;48.726;9.102;2022-10-28T08:28:26;19.10;99.90
15698;DHT22;7949;48.726;9.102;2022-10-28T08:30:58;19.20;99.90
15698;DHT22;7949;48.726;9.102;2022-10-28T08:33:25;19.20;99.90
15698;DHT22;7949;48.726;9.102;2022-10-28T08:35:52;19.30;99.90
15698;DHT22;7949;48.726;9.102;2022-10-28T08:38:19;19.30;99.90
15698;DHT22;7949;48.726;9.102;2022-10-28T08:40:51;19.30;99.90
15698;DHT22;7949;48.726;9.102;2022-10-28T08:43:25;19.40;99.90
15698;DHT22;7949;48.726;9.102;2022-10-28T08:45:58;19.50;99.90
15698;DHT22;7949;48.726;9.102;2022-10-28T08:48:29;19.50;99.90
15698;DHT22;7949;48.726;9.102;2022-10-28T08:51:00;19.70;99.90
15698;DHT22;7949;48.726;9.102;2022-10-28T08:53:34;19.80;99.90
15698;DHT22;7949;48.726;9.102;2022-10-28T08:56:08;20.00;99.90
15698;DHT22;7949;48.726;9.102;2022-10-28T08:58:39;20.10;99.90
15698;DHT22;7949;48.726;9.102;2022-10-28T09:01:15;20.20;99.90
15698;DHT22;7949;48.726;9.102;2022-10-28T09:03:47;20.30;99.90
15698;DHT22;7949;48.726;9.102;2022-10-28T09:06:16;20.40;99.90
15698;DHT22;7949;48.726;9.102;2022-10-28T09:08:45;20.50;99.90
15698;DHT22;7949;48.726;9.102;2022-10-28T09:11:23;20.60;99.90
15698;DHT22;7949;48.726;9.102;2022-10-28T09:14:06;20.70;99.90
15698;DHT22;7949;48.726;9.102;2022-10-28T09:16:42;20.80;99.90
15698;DHT22;7949;48.726;9.102;2022-10-28T09:19:15;20.90;99.90
15698;DHT22;7949;48.726;9.102;2022-10-28T09:21:47;21.00;99.90
15698;DHT22;7949;48.726;9.102;2022-10-28T09:24:19;21.70;99.90
15698;DHT22;7949;48.726;9.102;2022-10-28T09:26:51;20.90;99.90
15698;DHT22;7949;48.726;9.102;2022-10-28T09:29:35;20.90;99.90
15698;DHT22;7949;48.726;9.102;2022-10-28T09:32:13;20.80;99.90
15698;DHT22;7949;48.726;9.102;2022-10-28T09:34:45;20.60;99.90
15698;DHT22;7949;48.726;9.102;2022-10-28T09:37:16;20.40;99.90
15698;DHT22;7949;48.726;9.102;2022-10-28T09:39:47;20.50;99.90
15698;DHT22;7949;48.726;9.102;2022-10-28T09:42:21;20.50;99.90
15698;DHT22;7949;48.726;9.102;2022-10-28T09:44:52;20.80;99.90
15698;DHT22;7949;48.726;9.102;2022-10-28T09:47:24;21.00;99.90
15698;DHT22;7949;48.726;9.102;2022-10-28T09:49:56;21.10;99.90
15698;DHT22;7949;48.726;9.102;2022-10-28T09:52:27;21.40;99.90
15698;DHT22;7949;48.726;9.102;2022-10-28T09:54:57;21.60;99.90
15698;DHT22;7949;48.726;9.102;2022-10-28T09:57:30;21.80;99.90
15698;DHT22;7949;48.726;9.102;2022-10-28T09:59:58;21.90;99.90
15698;DHT22;7949;48.726;9.102;2022-10-28T10:02:28;22.10;99.90
15698;DHT22;7949;48.726;9.102;2022-10-28T10:04:56;22.10;99.90
15698;DHT22;7949;48.726;9.102;2022-10-28T10:07:32;22.20;99.90
15698;DHT22;7949;48.726;9.102;2022-10-28T10:10:03;22.20;99.90
15698;DHT22;7949;48.726;9.102;2022-10-28T10:12:32;22.20;99.90
15698;DHT22;7949;48.726;9.102;2022-10-28T10:15:00;22.20;99.90
15698;DHT22;7949;48.726;9.102;2022-10-28T10:17:38;22.30;99.90
15698;DHT22;7949;48.726;9.102;2022-10-28T10:20:08;22.20;99.90
15698;DHT22;7949;48.726;9.102;2022-10-28T10:22:37;22.10;99.90
15698;DHT22;7949;48.726;9.102;2022-10-28T10:25:25;22.10;99.90
15698;DHT22;7949;48.726;9.102;2022-10-28T10:27:58;22.00;99.90
15698;DHT22;7949;48.726;9.102;2022-10-28T10:30:28;21.90;99.90
15698;DHT22;7949;48.726;9.102;2022-10-28T10:32:58;22.20;99.90
15698;DHT22;7949;48.726;9.102;2022-10-28T10:35:27;21.80;99.90
15698;DHT22;7949;48.726;9.102;2022-10-28T10:37:56;21.80;99.90
15698;DHT22;7949;48.726;9.102;2022-10-28T10:40:26;21.80;99.90
15698;DHT22;7949;48.726;9.102;2022-10-28T10:42:56;21.90;99.90
15698;DHT22;7949;48.726;9.102;2022-10-28T10:45:39;22.00;99.90
15698;DHT22;7949;48.726;9.102;2022-10-28T10:48:12;22.00;99.90
15698;DHT22;7949;48.726;9.102;2022-10-28T10:50:40;22.00;99.90
15698;DHT22;7949;48.726;9.102;2022-10-28T10:53:17;22.00;99.90
15698;DHT22;7949;48.726;9.102;2022-10-28T10:55:49;22.10;99.90
15698;DHT22;7949;48.726;9.102;2022-10-28T10:58:18;22.10;99.90
15698;DHT22;7949;48.726;9.102;2022-10-28T11:00:48;22.20;99.90
15698;DHT22;7949;48.726;9.102;2022-10-28T11:03:19;22.20;99.90
15698;DHT22;7949;48.726;9.102;2022-10-28T11:05:48;22.30;99.90
15698;DHT22;7949;48.726;9.102;2022-10-28T11:08:29;22.30;99.90
15698;DHT22;7949;48.726;9.102;2022-10-28T11:11:05;22.50;99.90
15698;DHT22;7949;48.726;9.102;2022-10-28T11:13:33;22.50;99.90
15698;DHT22;7949;48.726;9.102;2022-10-28T11:16:01;22.60;99.90
15698;DHT22;7949;48.726;9.102;2022-10-28T11:18:38;22.50;99.90
15698;DHT22;7949;48.726;9.102;2022-10-28T11:21:09;22.50;99.90
15698;DHT22;7949;48.726;9.102;2022-10-28T11:23:47;22.50;99.90
15698;DHT22;7949;48.726;9.102;2022-10-28T11:26:18;22.50;99.90
15698;DHT22;7949;48.726;9.102;2022-10-28T11:29:00;22.50;99.90
15698;DHT22;7949;48.726;9.102;2022-10-28T11:31:51;22.50;99.90
15698;DHT22;7949;48.726;9.102;2022-10-28T11:34:43;22.70;99.90
15698;DHT22;7949;48.726;9.102;2022-10-28T11:37:16;22.90;99.90
15698;DHT22;7949;48.726;9.102;2022-10-28T11:39:56;22.80;99.90
15698;DHT22;7949;48.726;9.102;2022-10-28T11:42:31;22.70;99.90
15698;DHT22;7949;48.726;9.102;2022-10-28T11:45:03;22.70;99.90
15698;DHT22;7949;48.726;9.102;2022-10-28T11:47:51;22.80;99.90
15698;DHT22;7949;48.726;9.102;2022-10-28T11:50:34;23.50;99.90
15698;DHT22;7949;48.726;9.102;2022-10-28T11:53:30;24.30;99.90
15698;DHT22;7949;48.726;9.102;2022-10-28T11:56:09;24.20;99.90
15698;DHT22;7949;48.726;9.102;2022-10-28T11:58:44;23.80;99.90
15698;DHT22;7949;48.726;9.102;2022-10-28T12:01:22;23.40;99.90
15698;DHT22;7949;48.726;9.102;2022-10-28T12:04:02;23.20;99.90
15698;DHT22;7949;48.726;9.102;2022-10-28T12:09:37;23.10;99.90
15698;DHT22;7949;48.726;9.102;2022-10-28T12:12:15;23.10;99.90
15698;DHT22;7949;48.726;9.102;2022-10-28T12:14:49;23.10;99.90
15698;DHT22;7949;48.726;9.102;2022-10-28T12:17:24;23.20;99.90
15698;DHT22;7949;48.726;9.102;2022-10-28T12:19:58;23.50;99.90
15698;DHT22;7949;48.726;9.102;2022-10-28T12:22:29;23.90;99.90
15698;DHT22;7949;48.726;9.102;2022-10-28T12:25:02;24.60;99.90
15698;DHT22;7949;48.726;9.102;2022-10-28T12:27:37;25.20;99.90
15698;DHT22;7949;48.726;9.102;2022-10-28T12:30:14;25.70;99.90
15698;DHT22;7949;48.726;9.102;2022-10-28T12:32:42;26.30;99.90
15698;DHT22;7949;48.726;9.102;2022-10-28T12:35:16;27.00;99.90
15698;DHT22;7949;48.726;9.102;2022-10-28T12:37:50;27.70;99.90
15698;DHT22;7949;48.726;9.102;2022-10-28T12:40:20;28.50;99.90
15698;DHT22;7949;48.726;9.102;2022-10-28T12:42:51;28.80;99.90
15698;DHT22;7949;48.726;9.102;2022-10-28T12:45:20;28.70;99.90
15698;DHT22;7949;48.726;9.102;2022-10-28T12:47:52;28.40;99.90
15698;DHT22;7949;48.726;9.102;2022-10-28T12:50:25;28.70;99.90
15698;DHT22;7949;48.726;9.102;2022-10-28T12:53:11;29.00;99.90
15698;DHT22;7949;48.726;9.102;2022-10-28T12:55:43;29.20;99.90
15698;DHT22;7949;48.726;9.102;2022-10-28T12:58:14;29.30;99.90
15698;DHT22;7949;48.726;9.102;2022-10-28T13:00:47;29.60;99.90
15698;DHT22;7949;48.726;9.102;2022-10-28T13:03:15;29.20;99.90
15698;DHT22;7949;48.726;9.102;2022-10-28T13:05:46;28.40;99.90
15698;DHT22;7949;48.726;9.102;2022-10-28T13:08:54;27.40;99.90
15698;DHT22;7949;48.726;9.102;2022-10-28T13:11:40;26.80;99.90
15698;DHT22;7949;48.726;9.102;2022-10-28T13:14:20;27.20;99.90
15698;DHT22;7949;48.726;9.102;2022-10-28T13:17:12;27.90;99.90
15698;DHT22;7949;48.726;9.102;2022-10-28T13:19:59;28.50;99.90
15698;DHT22;7949;48.726;9.102;2022-10-28T13:22:41;28.80;99.90
15698;DHT22;7949;48.726;9.102;2022-10-28T13:28:12;29.40;99.90
15698;DHT22;7949;48.726;9.102;2022-10-28T13:30:51;29.00;99.90
15698;DHT22;7949;48.726;9.102;2022-10-28T13:33:23;28.50;99.90
15698;DHT22;7949;48.726;9.102;2022-10-28T13:35:51;27.80;99.90
15698;DHT22;7949;48.726;9.102;2022-10-28T13:38:21;26.90;99.90
15698;DHT22;7949;48.726;9.102;2022-10-28T13:41:18;26.30;99.90
15698;DHT22;7949;48.726;9.102;2022-10-28T13:44:23;25.70;99.90
15698;DHT22;7949;48.726;9.102;2022-10-28T13:56:23;24.70;99.90
15698;DHT22;7949;48.726;9.102;2022-10-28T13:58:54;24.70;99.90
15698;DHT22;7949;48.726;9.102;2022-10-28T14:01:49;24.60;99.90
15698;DHT22;7949;48.726;9.102;2022-10-28T14:04:25;24.60;99.90
15698;DHT22;7949;48.726;9.102;2022-10-28T14:07:18;24.70;99.90
15698;DHT22;7949;48.726;9.102;2022-10-28T14:09:51;24.80;99.90
15698;DHT22;7949;48.726;9.102;2022-10-28T14:12:26;25.00;99.90
15698;DHT22;7949;48.726;9.102;2022-10-28T14:15:04;25.00;99.90
15698;DHT22;7949;48.726;9.102;2022-10-28T14:17:37;24.90;99.90
15698;DHT22;7949;48.726;9.102;2022-10-28T14:20:17;24.90;99.90
15698;DHT22;7949;48.726;9.102;2022-10-28T14:22:45;24.90;99.90
15698;DHT22;7949;48.726;9.102;2022-10-28T14:31:40;25.10;99.90
15698;DHT22;7949;48.726;9.102;2022-10-28T14:34:37;25.10;99.90
15698;DHT22;7949;48.726;9.102;2022-10-28T14:40:17;24.80;99.90
15698;DHT22;7949;48.726;9.102;2022-10-28T14:42:55;24.60;99.90
15698;DHT22;7949;48.726;9.102;2022-10-28T14:45:32;24.50;99.90
15698;DHT22;7949;48.726;9.102;2022-10-28T14:51:18;24.20;99.90
15698;DHT22;7949;48.726;9.102;2022-10-28T14:53:45;24.10;99.90
15698;DHT22;7949;48.726;9.102;2022-10-28T14:56:19;24.00;99.90
15698;DHT22;7949;48.726;9.102;2022-10-28T14:58:47;23.90;99.90
15698;DHT22;7949;48.726;9.102;2022-10-28T15:01:27;23.80;99.90
15698;DHT22;7949;48.726;9.102;2022-10-28T15:04:00;23.70;99.90
15698;DHT22;7949;48.726;9.102;2022-10-28T15:06:34;23.60;99.90
15698;DHT22;7949;48.726;9.102;2022-10-28T15:09:14;23.70;99.90
15698;DHT22;7949;48.726;9.102;2022-10-28T15:11:44;23.60;99.90
15698;DHT22;7949;48.726;9.102;2022-10-28T15:14:20;23.50;99.90
15698;DHT22;7949;48.726;9.102;2022-10-28T15:16:49;23.40;99.90
15698;DHT22;7949;48.726;9.102;2022-10-28T15:19:19;23.30;99.90
15698;DHT22;7949;48.726;9.102;2022-10-28T15:22:05;23.20;99.90
15698;DHT22;7949;48.726;9.102;2022-10-28T15:24:32;23.10;99.90
15698;DHT22;7949;48.726;9.102;2022-10-28T15:26:59;23.10;99.90
15698;DHT22;7949;48.726;9.102;2022-10-28T15:29:26;23.00;99.90
15698;DHT22;7949;48.726;9.102;2022-10-28T15:32:09;22.90;99.90
15698;DHT22;7949;48.726;9.102;2022-10-28T15:34:40;22.80;99.90
15698;DHT22;7949;48.726;9.102;2022-10-28T15:37:07;22.70;99.90
15698;DHT22;7949;48.726;9.102;2022-10-28T15:39:34;22.70;99.90
15698;DHT22;7949;48.726;9.102;2022-10-28T15:44:53;22.60;99.90
15698;DHT22;7949;48.726;9.102;2022-10-28T15:47:27;22.40;99.90
15698;DHT22;7949;48.726;9.102;2022-10-28T15:50:02;22.40;99.90
15698;DHT22;7949;48.726;9.102;2022-10-28T15:52:32;22.20;99.90
15698;DHT22;7949;48.726;9.102;2022-10-28T15:55:01;22.10;99.90
15698;DHT22;7949;48.726;9.102;2022-10-28T15:57:29;22.00;99.90
15698;DHT22;7949;48.726;9.102;2022-10-28T16:00:19;21.90;99.90
15698;DHT22;7949;48.726;9.102;2022-10-28T16:02:52;21.90;99.90
15698;DHT22;7949;48.726;9.102;2022-10-28T16:08:20;21.80;99.90
15698;DHT22;7949;48.726;9.102;2022-10-28T16:10:51;21.70;99.90
15698;DHT22;7949;48.726;9.102;2022-10-28T16:13:22;21.90;99.90
15698;DHT22;7949;48.726;9.102;2022-10-28T16:15:58;21.70;99.90
15698;DHT22;7949;48.726;9.102;2022-10-28T16:18:28;21.70;99.90
15698;DHT22;7949;48.726;9.102;2022-10-28T16:20:55;21.70;99.90
15698;DHT22;7949;48.726;9.102;2022-10-28T16:23:31;21.60;99.90
15698;DHT22;7949;48.726;9.102;2022-10-28T16:25:59;21.50;99.90
15698;DHT22;7949;48.726;9.102;2022-10-28T16:28:27;21.50;99.90
15698;DHT22;7949;48.726;9.102;2022-10-28T16:30:55;21.50;99.90
15698;DHT22;7949;48.726;9.102;2022-10-28T16:33:27;21.40;99.90
15698;DHT22;7949;48.726;9.102;2022-10-28T16:35:54;21.30;99.90
15698;DHT22;7949;48.726;9.102;2022-10-28T16:38:21;21.30;99.90
15698;DHT22;7949;48.726;9.102;2022-10-28T16:40:50;21.20;99.90
15698;DHT22;7949;48.726;9.102;2022-10-28T16:43:19;21.20;99.90
15698;DHT22;7949;48.726;9.102;2022-10-28T16:45:47;21.20;99.90
15698;DHT22;7949;48.726;9.102;2022-10-28T16:48:15;21.10;99.90
15698;DHT22;7949;48.726;9.102;2022-10-28T16:50:46;20.90;99.90